sensor_id;sensor_type;location;lat;lon;timestamp;P1;durP1;ratioP1;P2;durP2;ratioP2
73575;SDS011;61859;49.204;8.140;2023-07-30T00:01:48;1.43;;;0.97;;
73575;SDS011;61859;49.204;8.140;2023-07-30T00:04:13;1.90;;;1.10;;
73575;SDS011;61859;49.204;8.140;2023-07-30T00:06:39;1.17;;;0.80;;
73575;SDS011;61859;49.204;8.140;2023-07-30T00:09:04;1.67;;;0.90;;
73575;SDS011;61859;49.204;8.140;2023-07-30T00:11:30;1.10;;;1.00;;
73575;SDS011;61859;49.204;8.140;2023-07-30T00:13:55;1.37;;;1.10;;
73575;SDS011;61859;49.204;8.140;2023-07-30T00:16:21;1.47;;;1.10;;
73575;SDS011;61859;49.204;8.140;2023-07-30T00:18:46;1.03;;;0.97;;
73575;SDS011;61859;49.204;8.140;2023-07-30T00:21:12;1.57;;;1.13;;
73575;SDS011;61859;49.204;8.140;2023-07-30T00:23:38;1.93;;;1.37;;
73575;SDS011;61859;49.204;8.140;2023-07-30T00:26:03;1.27;;;1.10;;
73575;SDS011;61859;49.204;8.140;2023-07-30T00:28:29;1.53;;;1.33;;
73575;SDS011;61859;49.204;8.140;2023-07-30T00:30:54;1.10;;;1.10;;
73575;SDS011;61859;49.204;8.140;2023-07-30T00:33:20;2.60;;;1.30;;
73575;SDS011;61859;49.204;8.140;2023-07-30T00:35:45;1.10;;;1.10;;
73575;SDS011;61859;49.204;8.140;2023-07-30T00:38:11;2.30;;;1.47;;
73575;SDS011;61859;49.204;8.140;2023-07-30T00:40:40;1.30;;;1.20;;
73575;SDS011;61859;49.204;8.140;2023-07-30T00:43:06;1.37;;;1.27;;
73575;SDS011;61859;49.204;8.140;2023-07-30T00:45:32;3.43;;;1.40;;
73575;SDS011;61859;49.204;8.140;2023-07-30T00:47:57;1.40;;;1.30;;
73575;SDS011;61859;49.204;8.140;2023-07-30T00:50:23;3.43;;;1.27;;
73575;SDS011;61859;49.204;8.140;2023-07-30T00:52:49;0.87;;;0.87;;
73575;SDS011;61859;49.204;8.140;2023-07-30T00:55:15;2.87;;;1.23;;
73575;SDS011;61859;49.204;8.140;2023-07-30T00:57:41;2.70;;;1.10;;
73575;SDS011;61859;49.204;8.140;2023-07-30T01:00:07;1.53;;;1.10;;
73575;SDS011;61859;49.204;8.140;2023-07-30T01:02:35;1.20;;;1.00;;
73575;SDS011;61859;49.204;8.140;2023-07-30T01:05:01;1.30;;;1.20;;
73575;SDS011;61859;49.204;8.140;2023-07-30T01:07:29;3.33;;;1.20;;
73575;SDS011;61859;49.204;8.140;2023-07-30T01:09:55;2.20;;;1.20;;
73575;SDS011;61859;49.204;8.140;2023-07-30T01:12:21;2.20;;;1.17;;
73575;SDS011;61859;49.204;8.140;2023-07-30T01:14:47;1.30;;;1.20;;
73575;SDS011;61859;49.204;8.140;2023-07-30T01:17:13;1.07;;;1.07;;
73575;SDS011;61859;49.204;8.140;2023-07-30T01:19:39;1.23;;;1.13;;
73575;SDS011;61859;49.204;8.140;2023-07-30T01:22:04;1.30;;;1.20;;
73575;SDS011;61859;49.204;8.140;2023-07-30T01:24:30;1.20;;;1.00;;
73575;SDS011;61859;49.204;8.140;2023-07-30T01:26:57;1.13;;;1.03;;
73575;SDS011;61859;49.204;8.140;2023-07-30T01:32:27;1.47;;;1.30;;
73575;SDS011;61859;49.204;8.140;2023-07-30T01:34:56;2.13;;;1.20;;
73575;SDS011;61859;49.204;8.140;2023-07-30T01:37:22;1.20;;;1.10;;
73575;SDS011;61859;49.204;8.140;2023-07-30T01:39:49;1.30;;;1.20;;
73575;SDS011;61859;49.204;8.140;2023-07-30T01:42:15;0.90;;;0.90;;
73575;SDS011;61859;49.204;8.140;2023-07-30T01:44:41;1.30;;;1.20;;
73575;SDS011;61859;49.204;8.140;2023-07-30T01:47:07;2.53;;;1.30;;
73575;SDS011;61859;49.204;8.140;2023-07-30T01:49:33;2.97;;;1.10;;
73575;SDS011;61859;49.204;8.140;2023-07-30T01:51:58;1.97;;;1.10;;
73575;SDS011;61859;49.204;8.140;2023-07-30T01:54:24;1.20;;;1.10;;
73575;SDS011;61859;49.204;8.140;2023-07-30T01:56:50;1.30;;;1.20;;
73575;SDS011;61859;49.204;8.140;2023-07-30T01:59:16;2.60;;;1.37;;
73575;SDS011;61859;49.204;8.140;2023-07-30T02:01:42;1.40;;;1.10;;
73575;SDS011;61859;49.204;8.140;2023-07-30T02:04:08;3.53;;;1.13;;
73575;SDS011;61859;49.204;8.140;2023-07-30T02:06:34;1.80;;;1.43;;
73575;SDS011;61859;49.204;8.140;2023-07-30T02:08:59;5.00;;;1.40;;
73575;SDS011;61859;49.204;8.140;2023-07-30T02:11:25;3.47;;;1.17;;
73575;SDS011;61859;49.204;8.140;2023-07-30T02:13:51;1.80;;;1.37;;
73575;SDS011;61859;49.204;8.140;2023-07-30T02:16:16;2.07;;;1.33;;
73575;SDS011;61859;49.204;8.140;2023-07-30T02:18:42;2.10;;;1.23;;
73575;SDS011;61859;49.204;8.140;2023-07-30T02:21:07;1.80;;;1.10;;
73575;SDS011;61859;49.204;8.140;2023-07-30T02:23:33;2.33;;;1.43;;
73575;SDS011;61859;49.204;8.140;2023-07-30T02:25:58;1.40;;;1.20;;
73575;SDS011;61859;49.204;8.140;2023-07-30T02:28:24;3.73;;;1.53;;
73575;SDS011;61859;49.204;8.140;2023-07-30T02:30:49;1.43;;;1.33;;
73575;SDS011;61859;49.204;8.140;2023-07-30T02:33:15;2.17;;;1.33;;
73575;SDS011;61859;49.204;8.140;2023-07-30T02:35:42;1.73;;;1.63;;
73575;SDS011;61859;49.204;8.140;2023-07-30T02:38:08;1.37;;;1.27;;
73575;SDS011;61859;49.204;8.140;2023-07-30T02:40:33;3.00;;;1.30;;
73575;SDS011;61859;49.204;8.140;2023-07-30T02:42:59;2.00;;;1.47;;
73575;SDS011;61859;49.204;8.140;2023-07-30T02:45:25;1.40;;;1.30;;
73575;SDS011;61859;49.204;8.140;2023-07-30T02:47:50;1.20;;;1.10;;
73575;SDS011;61859;49.204;8.140;2023-07-30T02:50:16;1.73;;;1.40;;
73575;SDS011;61859;49.204;8.140;2023-07-30T02:52:41;2.90;;;1.30;;
73575;SDS011;61859;49.204;8.140;2023-07-30T02:55:07;2.50;;;1.53;;
73575;SDS011;61859;49.204;8.140;2023-07-30T02:57:33;2.73;;;1.50;;
73575;SDS011;61859;49.204;8.140;2023-07-30T02:59:58;3.20;;;1.30;;
73575;SDS011;61859;49.204;8.140;2023-07-30T03:02:24;3.00;;;1.50;;
73575;SDS011;61859;49.204;8.140;2023-07-30T03:04:49;2.43;;;1.53;;
73575;SDS011;61859;49.204;8.140;2023-07-30T03:07:15;1.23;;;1.17;;
73575;SDS011;61859;49.204;8.140;2023-07-30T03:09:41;1.87;;;1.30;;
73575;SDS011;61859;49.204;8.140;2023-07-30T03:12:06;2.40;;;1.43;;
73575;SDS011;61859;49.204;8.140;2023-07-30T03:14:32;2.00;;;1.30;;
73575;SDS011;61859;49.204;8.140;2023-07-30T03:16:57;1.57;;;1.20;;
73575;SDS011;61859;49.204;8.140;2023-07-30T03:19:23;2.30;;;1.40;;
73575;SDS011;61859;49.204;8.140;2023-07-30T03:21:48;2.07;;;1.10;;
73575;SDS011;61859;49.204;8.140;2023-07-30T03:24:14;1.70;;;1.40;;
73575;SDS011;61859;49.204;8.140;2023-07-30T03:26:39;2.43;;;1.30;;
73575;SDS011;61859;49.204;8.140;2023-07-30T03:29:05;1.17;;;1.13;;
73575;SDS011;61859;49.204;8.140;2023-07-30T03:31:31;3.83;;;1.50;;
73575;SDS011;61859;49.204;8.140;2023-07-30T03:33:56;1.87;;;1.60;;
73575;SDS011;61859;49.204;8.140;2023-07-30T03:36:22;1.40;;;1.30;;
73575;SDS011;61859;49.204;8.140;2023-07-30T03:38:47;1.33;;;1.23;;
73575;SDS011;61859;49.204;8.140;2023-07-30T03:41:13;1.40;;;1.30;;
73575;SDS011;61859;49.204;8.140;2023-07-30T03:43:38;4.33;;;1.80;;
73575;SDS011;61859;49.204;8.140;2023-07-30T03:46:04;2.20;;;1.43;;
73575;SDS011;61859;49.204;8.140;2023-07-30T03:48:29;2.00;;;1.40;;
73575;SDS011;61859;49.204;8.140;2023-07-30T03:50:55;1.50;;;1.40;;
73575;SDS011;61859;49.204;8.140;2023-07-30T03:53:21;3.60;;;1.60;;
73575;SDS011;61859;49.204;8.140;2023-07-30T03:55:47;1.30;;;1.20;;
73575;SDS011;61859;49.204;8.140;2023-07-30T03:58:12;2.90;;;1.40;;
73575;SDS011;61859;49.204;8.140;2023-07-30T04:00:38;1.77;;;1.50;;
73575;SDS011;61859;49.204;8.140;2023-07-30T04:03:04;2.27;;;1.87;;
73575;SDS011;61859;49.204;8.140;2023-07-30T04:05:30;3.00;;;1.50;;
73575;SDS011;61859;49.204;8.140;2023-07-30T04:07:55;3.57;;;1.60;;
73575;SDS011;61859;49.204;8.140;2023-07-30T04:10:21;1.53;;;1.43;;
73575;SDS011;61859;49.204;8.140;2023-07-30T04:12:47;1.80;;;1.70;;
73575;SDS011;61859;49.204;8.140;2023-07-30T04:15:12;1.93;;;1.83;;
73575;SDS011;61859;49.204;8.140;2023-07-30T04:17:39;3.80;;;1.83;;
73575;SDS011;61859;49.204;8.140;2023-07-30T04:20:04;1.73;;;1.60;;
73575;SDS011;61859;49.204;8.140;2023-07-30T04:22:31;1.87;;;1.77;;
73575;SDS011;61859;49.204;8.140;2023-07-30T04:24:56;4.10;;;1.97;;
73575;SDS011;61859;49.204;8.140;2023-07-30T04:27:22;2.03;;;1.83;;
73575;SDS011;61859;49.204;8.140;2023-07-30T04:29:47;3.10;;;2.10;;
73575;SDS011;61859;49.204;8.140;2023-07-30T04:32:13;1.80;;;1.70;;
73575;SDS011;61859;49.204;8.140;2023-07-30T04:34:38;3.30;;;2.00;;
73575;SDS011;61859;49.204;8.140;2023-07-30T04:37:05;2.13;;;2.00;;
73575;SDS011;61859;49.204;8.140;2023-07-30T04:39:34;5.30;;;2.33;;
73575;SDS011;61859;49.204;8.140;2023-07-30T04:42:00;2.30;;;2.10;;
73575;SDS011;61859;49.204;8.140;2023-07-30T04:44:26;4.13;;;2.10;;
73575;SDS011;61859;49.204;8.140;2023-07-30T04:46:51;4.70;;;2.30;;
73575;SDS011;61859;49.204;8.140;2023-07-30T04:49:17;6.20;;;2.20;;
73575;SDS011;61859;49.204;8.140;2023-07-30T04:51:42;2.70;;;2.10;;
73575;SDS011;61859;49.204;8.140;2023-07-30T04:54:08;2.40;;;2.20;;
73575;SDS011;61859;49.204;8.140;2023-07-30T04:56:33;3.13;;;2.20;;
73575;SDS011;61859;49.204;8.140;2023-07-30T04:58:59;2.40;;;2.20;;
73575;SDS011;61859;49.204;8.140;2023-07-30T05:01:25;2.70;;;2.20;;
73575;SDS011;61859;49.204;8.140;2023-07-30T05:03:51;2.63;;;2.43;;
73575;SDS011;61859;49.204;8.140;2023-07-30T05:06:16;2.70;;;2.10;;
73575;SDS011;61859;49.204;8.140;2023-07-30T05:08:42;2.93;;;2.10;;
73575;SDS011;61859;49.204;8.140;2023-07-30T05:11:08;4.17;;;2.53;;
73575;SDS011;61859;49.204;8.140;2023-07-30T05:13:33;3.13;;;2.37;;
73575;SDS011;61859;49.204;8.140;2023-07-30T05:15:59;2.53;;;2.33;;
73575;SDS011;61859;49.204;8.140;2023-07-30T05:18:24;2.80;;;2.37;;
73575;SDS011;61859;49.204;8.140;2023-07-30T05:20:50;2.30;;;2.20;;
73575;SDS011;61859;49.204;8.140;2023-07-30T05:23:15;5.00;;;2.57;;
73575;SDS011;61859;49.204;8.140;2023-07-30T05:25:41;2.87;;;2.23;;
73575;SDS011;61859;49.204;8.140;2023-07-30T05:28:07;2.57;;;2.37;;
73575;SDS011;61859;49.204;8.140;2023-07-30T05:30:32;2.43;;;2.23;;
73575;SDS011;61859;49.204;8.140;2023-07-30T05:32:58;4.13;;;2.40;;
73575;SDS011;61859;49.204;8.140;2023-07-30T05:35:23;2.50;;;2.30;;
73575;SDS011;61859;49.204;8.140;2023-07-30T05:37:49;2.30;;;2.20;;
73575;SDS011;61859;49.204;8.140;2023-07-30T05:40:14;2.30;;;2.10;;
73575;SDS011;61859;49.204;8.140;2023-07-30T05:42:40;4.73;;;2.10;;
73575;SDS011;61859;49.204;8.140;2023-07-30T05:45:06;2.47;;;2.27;;
73575;SDS011;61859;49.204;8.140;2023-07-30T05:47:32;2.33;;;2.10;;
73575;SDS011;61859;49.204;8.140;2023-07-30T05:49:57;2.27;;;2.17;;
73575;SDS011;61859;49.204;8.140;2023-07-30T05:52:23;2.43;;;2.23;;
73575;SDS011;61859;49.204;8.140;2023-07-30T05:54:48;4.27;;;2.47;;
73575;SDS011;61859;49.204;8.140;2023-07-30T05:57:14;2.90;;;2.00;;
73575;SDS011;61859;49.204;8.140;2023-07-30T05:59:40;3.07;;;1.87;;
73575;SDS011;61859;49.204;8.140;2023-07-30T06:02:05;1.70;;;1.60;;
73575;SDS011;61859;49.204;8.140;2023-07-30T06:04:31;2.43;;;2.17;;
73575;SDS011;61859;49.204;8.140;2023-07-30T06:07:01;2.40;;;1.90;;
73575;SDS011;61859;49.204;8.140;2023-07-30T06:09:28;2.00;;;1.80;;
73575;SDS011;61859;49.204;8.140;2023-07-30T06:11:56;2.40;;;2.20;;
73575;SDS011;61859;49.204;8.140;2023-07-30T06:14:22;2.23;;;2.00;;
73575;SDS011;61859;49.204;8.140;2023-07-30T06:16:48;2.60;;;1.93;;
73575;SDS011;61859;49.204;8.140;2023-07-30T06:19:14;2.00;;;1.90;;
73575;SDS011;61859;49.204;8.140;2023-07-30T06:21:39;2.70;;;2.10;;
73575;SDS011;61859;49.204;8.140;2023-07-30T06:24:05;4.73;;;2.10;;
73575;SDS011;61859;49.204;8.140;2023-07-30T06:26:30;3.00;;;2.30;;
73575;SDS011;61859;49.204;8.140;2023-07-30T06:28:56;3.47;;;2.13;;
73575;SDS011;61859;49.204;8.140;2023-07-30T06:31:22;3.30;;;2.17;;
73575;SDS011;61859;49.204;8.140;2023-07-30T06:33:47;2.23;;;2.03;;
73575;SDS011;61859;49.204;8.140;2023-07-30T06:36:13;3.33;;;2.30;;
73575;SDS011;61859;49.204;8.140;2023-07-30T06:38:38;2.57;;;2.37;;
73575;SDS011;61859;49.204;8.140;2023-07-30T06:41:04;3.20;;;2.23;;
73575;SDS011;61859;49.204;8.140;2023-07-30T06:43:30;2.40;;;2.20;;
73575;SDS011;61859;49.204;8.140;2023-07-30T06:45:55;3.20;;;2.43;;
73575;SDS011;61859;49.204;8.140;2023-07-30T06:48:21;2.83;;;2.37;;
73575;SDS011;61859;49.204;8.140;2023-07-30T06:50:46;4.33;;;2.73;;
73575;SDS011;61859;49.204;8.140;2023-07-30T06:53:12;2.70;;;2.50;;
73575;SDS011;61859;49.204;8.140;2023-07-30T06:55:37;4.40;;;2.40;;
73575;SDS011;61859;49.204;8.140;2023-07-30T06:58:03;2.20;;;2.00;;
73575;SDS011;61859;49.204;8.140;2023-07-30T07:00:28;2.57;;;2.37;;
73575;SDS011;61859;49.204;8.140;2023-07-30T07:02:54;2.37;;;2.17;;
73575;SDS011;61859;49.204;8.140;2023-07-30T07:05:19;2.67;;;2.47;;
73575;SDS011;61859;49.204;8.140;2023-07-30T07:07:45;3.27;;;2.27;;
73575;SDS011;61859;49.204;8.140;2023-07-30T07:10:11;3.23;;;1.90;;
73575;SDS011;61859;49.204;8.140;2023-07-30T07:12:37;1.90;;;1.80;;
73575;SDS011;61859;49.204;8.140;2023-07-30T07:15:03;2.00;;;1.90;;
73575;SDS011;61859;49.204;8.140;2023-07-30T07:17:30;2.87;;;2.30;;
73575;SDS011;61859;49.204;8.140;2023-07-30T07:19:56;2.33;;;2.13;;
73575;SDS011;61859;49.204;8.140;2023-07-30T07:22:22;2.33;;;2.13;;
73575;SDS011;61859;49.204;8.140;2023-07-30T07:24:47;1.90;;;1.80;;
73575;SDS011;61859;49.204;8.140;2023-07-30T07:27:13;2.70;;;2.00;;
73575;SDS011;61859;49.204;8.140;2023-07-30T07:29:39;4.97;;;2.10;;
73575;SDS011;61859;49.204;8.140;2023-07-30T07:32:04;1.87;;;1.77;;
73575;SDS011;61859;49.204;8.140;2023-07-30T07:34:30;1.90;;;1.80;;
73575;SDS011;61859;49.204;8.140;2023-07-30T07:36:56;2.70;;;1.90;;
73575;SDS011;61859;49.204;8.140;2023-07-30T07:39:21;1.73;;;1.63;;
73575;SDS011;61859;49.204;8.140;2023-07-30T07:41:47;1.93;;;1.70;;
73575;SDS011;61859;49.204;8.140;2023-07-30T07:44:12;2.70;;;1.27;;
73575;SDS011;61859;49.204;8.140;2023-07-30T07:46:38;1.33;;;1.20;;
73575;SDS011;61859;49.204;8.140;2023-07-30T07:49:03;1.83;;;1.50;;
73575;SDS011;61859;49.204;8.140;2023-07-30T07:51:29;1.37;;;1.27;;
73575;SDS011;61859;49.204;8.140;2023-07-30T07:53:54;2.57;;;1.23;;
73575;SDS011;61859;49.204;8.140;2023-07-30T07:56:20;1.53;;;1.43;;
73575;SDS011;61859;49.204;8.140;2023-07-30T07:58:45;4.83;;;2.63;;
73575;SDS011;61859;49.204;8.140;2023-07-30T08:01:11;1.83;;;1.30;;
73575;SDS011;61859;49.204;8.140;2023-07-30T08:03:36;1.63;;;1.50;;
73575;SDS011;61859;49.204;8.140;2023-07-30T08:06:02;1.60;;;1.40;;
73575;SDS011;61859;49.204;8.140;2023-07-30T08:08:27;1.40;;;1.20;;
73575;SDS011;61859;49.204;8.140;2023-07-30T08:10:53;2.97;;;1.57;;
73575;SDS011;61859;49.204;8.140;2023-07-30T08:13:19;1.40;;;1.30;;
73575;SDS011;61859;49.204;8.140;2023-07-30T08:15:45;2.50;;;1.60;;
73575;SDS011;61859;49.204;8.140;2023-07-30T08:18:11;3.23;;;1.67;;
73575;SDS011;61859;49.204;8.140;2023-07-30T08:20:36;1.07;;;1.03;;
73575;SDS011;61859;49.204;8.140;2023-07-30T08:23:03;2.00;;;1.40;;
73575;SDS011;61859;49.204;8.140;2023-07-30T08:25:28;2.40;;;1.30;;
73575;SDS011;61859;49.204;8.140;2023-07-30T08:27:54;1.20;;;1.10;;
73575;SDS011;61859;49.204;8.140;2023-07-30T08:30:20;1.27;;;1.07;;
73575;SDS011;61859;49.204;8.140;2023-07-30T08:32:45;1.20;;;1.10;;
73575;SDS011;61859;49.204;8.140;2023-07-30T08:35:11;1.13;;;1.07;;
73575;SDS011;61859;49.204;8.140;2023-07-30T08:37:36;1.40;;;1.30;;
73575;SDS011;61859;49.204;8.140;2023-07-30T08:40:02;1.73;;;1.30;;
73575;SDS011;61859;49.204;8.140;2023-07-30T08:42:28;2.60;;;1.30;;
73575;SDS011;61859;49.204;8.140;2023-07-30T08:44:54;1.60;;;1.00;;
73575;SDS011;61859;49.204;8.140;2023-07-30T08:47:20;1.37;;;1.10;;
73575;SDS011;61859;49.204;8.140;2023-07-30T08:49:45;1.30;;;1.20;;
73575;SDS011;61859;49.204;8.140;2023-07-30T08:52:11;2.70;;;1.50;;
73575;SDS011;61859;49.204;8.140;2023-07-30T08:54:37;1.07;;;1.03;;
73575;SDS011;61859;49.204;8.140;2023-07-30T08:57:04;1.27;;;1.17;;
73575;SDS011;61859;49.204;8.140;2023-07-30T08:59:31;1.40;;;1.30;;
73575;SDS011;61859;49.204;8.140;2023-07-30T09:02:02;3.97;;;1.50;;
73575;SDS011;61859;49.204;8.140;2023-07-30T09:04:30;3.80;;;1.87;;
73575;SDS011;61859;49.204;8.140;2023-07-30T09:07:01;3.33;;;1.30;;
73575;SDS011;61859;49.204;8.140;2023-07-30T09:09:26;3.77;;;1.20;;
73575;SDS011;61859;49.204;8.140;2023-07-30T09:11:52;1.10;;;1.00;;
73575;SDS011;61859;49.204;8.140;2023-07-30T09:14:20;2.10;;;1.10;;
73575;SDS011;61859;49.204;8.140;2023-07-30T09:16:46;1.30;;;1.20;;
73575;SDS011;61859;49.204;8.140;2023-07-30T09:19:16;1.83;;;1.40;;
73575;SDS011;61859;49.204;8.140;2023-07-30T09:21:42;2.13;;;1.20;;
73575;SDS011;61859;49.204;8.140;2023-07-30T09:24:08;1.30;;;1.20;;
73575;SDS011;61859;49.204;8.140;2023-07-30T09:26:41;1.63;;;1.30;;
73575;SDS011;61859;49.204;8.140;2023-07-30T09:29:08;1.67;;;1.20;;
73575;SDS011;61859;49.204;8.140;2023-07-30T09:31:47;4.00;;;1.30;;
73575;SDS011;61859;49.204;8.140;2023-07-30T09:34:16;1.47;;;1.03;;
73575;SDS011;61859;49.204;8.140;2023-07-30T09:36:44;1.45;;;1.08;;
73575;SDS011;61859;49.204;8.140;2023-07-30T09:41:43;1.63;;;0.95;;
73575;SDS011;61859;49.204;8.140;2023-07-30T09:44:10;1.23;;;0.93;;
73575;SDS011;61859;49.204;8.140;2023-07-30T09:46:43;1.08;;;1.00;;
73575;SDS011;61859;49.204;8.140;2023-07-30T09:49:12;1.27;;;0.90;;
73575;SDS011;61859;49.204;8.140;2023-07-30T09:51:38;0.68;;;0.60;;
73575;SDS011;61859;49.204;8.140;2023-07-30T09:54:13;1.20;;;0.82;;
73575;SDS011;61859;49.204;8.140;2023-07-30T09:56:40;0.80;;;0.80;;
73575;SDS011;61859;49.204;8.140;2023-07-30T09:59:07;4.60;;;0.90;;
73575;SDS011;61859;49.204;8.140;2023-07-30T10:01:38;2.08;;;0.73;;
73575;SDS011;61859;49.204;8.140;2023-07-30T10:04:09;0.82;;;0.82;;
73575;SDS011;61859;49.204;8.140;2023-07-30T10:06:37;2.28;;;0.88;;
73575;SDS011;61859;49.204;8.140;2023-07-30T10:09:07;0.90;;;0.88;;
73575;SDS011;61859;49.204;8.140;2023-07-30T10:11:36;1.08;;;0.95;;
73575;SDS011;61859;49.204;8.140;2023-07-30T10:14:02;0.50;;;0.38;;
73575;SDS011;61859;49.204;8.140;2023-07-30T10:16:28;0.70;;;0.70;;
73575;SDS011;61859;49.204;8.140;2023-07-30T10:18:58;1.50;;;0.60;;
73575;SDS011;61859;49.204;8.140;2023-07-30T10:21:24;0.77;;;0.77;;
73575;SDS011;61859;49.204;8.140;2023-07-30T10:23:59;0.90;;;0.70;;
73575;SDS011;61859;49.204;8.140;2023-07-30T10:26:28;0.70;;;0.60;;
73575;SDS011;61859;49.204;8.140;2023-07-30T10:29:19;1.43;;;0.60;;
73575;SDS011;61859;49.204;8.140;2023-07-30T10:31:49;0.60;;;0.60;;
73575;SDS011;61859;49.204;8.140;2023-07-30T10:34:21;0.63;;;0.53;;
73575;SDS011;61859;49.204;8.140;2023-07-30T10:36:50;1.27;;;0.70;;
73575;SDS011;61859;49.204;8.140;2023-07-30T10:39:17;0.50;;;0.50;;
73575;SDS011;61859;49.204;8.140;2023-07-30T10:41:45;1.10;;;0.70;;
73575;SDS011;61859;49.204;8.140;2023-07-30T10:46:57;1.45;;;0.70;;
73575;SDS011;61859;49.204;8.140;2023-07-30T10:49:24;0.80;;;0.63;;
73575;SDS011;61859;49.204;8.140;2023-07-30T10:51:53;0.80;;;0.63;;
73575;SDS011;61859;49.204;8.140;2023-07-30T10:54:20;2.35;;;0.68;;
73575;SDS011;61859;49.204;8.140;2023-07-30T10:56:47;3.40;;;0.85;;
73575;SDS011;61859;49.204;8.140;2023-07-30T10:59:13;0.98;;;0.80;;
73575;SDS011;61859;49.204;8.140;2023-07-30T11:01:43;1.10;;;0.60;;
73575;SDS011;61859;49.204;8.140;2023-07-30T11:04:19;2.58;;;1.02;;
73575;SDS011;61859;49.204;8.140;2023-07-30T11:06:49;2.55;;;0.90;;
73575;SDS011;61859;49.204;8.140;2023-07-30T11:09:19;1.52;;;0.60;;
73575;SDS011;61859;49.204;8.140;2023-07-30T11:11:45;2.30;;;0.70;;
73575;SDS011;61859;49.204;8.140;2023-07-30T11:14:15;1.00;;;0.80;;
73575;SDS011;61859;49.204;8.140;2023-07-30T11:16:51;0.63;;;0.50;;
73575;SDS011;61859;49.204;8.140;2023-07-30T11:19:18;1.67;;;0.80;;
73575;SDS011;61859;49.204;8.140;2023-07-30T11:21:45;1.73;;;0.80;;
73575;SDS011;61859;49.204;8.140;2023-07-30T11:24:14;2.40;;;0.90;;
73575;SDS011;61859;49.204;8.140;2023-07-30T11:26:40;1.08;;;0.70;;
73575;SDS011;61859;49.204;8.140;2023-07-30T11:29:16;2.08;;;0.70;;
73575;SDS011;61859;49.204;8.140;2023-07-30T11:31:43;1.52;;;1.05;;
73575;SDS011;61859;49.204;8.140;2023-07-30T11:34:08;1.38;;;0.77;;
73575;SDS011;61859;49.204;8.140;2023-07-30T11:36:34;2.15;;;1.08;;
73575;SDS011;61859;49.204;8.140;2023-07-30T11:39:00;1.27;;;0.85;;
73575;SDS011;61859;49.204;8.140;2023-07-30T11:41:26;1.67;;;0.70;;
73575;SDS011;61859;49.204;8.140;2023-07-30T11:43:53;1.30;;;1.08;;
73575;SDS011;61859;49.204;8.140;2023-07-30T11:46:19;2.65;;;0.93;;
73575;SDS011;61859;49.204;8.140;2023-07-30T11:48:48;1.50;;;1.20;;
73575;SDS011;61859;49.204;8.140;2023-07-30T11:51:23;2.08;;;0.80;;
73575;SDS011;61859;49.204;8.140;2023-07-30T11:53:57;2.25;;;0.80;;
73575;SDS011;61859;49.204;8.140;2023-07-30T11:56:27;2.38;;;0.95;;
73575;SDS011;61859;49.204;8.140;2023-07-30T11:58:56;3.63;;;0.90;;
73575;SDS011;61859;49.204;8.140;2023-07-30T12:01:24;2.90;;;0.80;;
73575;SDS011;61859;49.204;8.140;2023-07-30T12:03:53;2.47;;;0.98;;
73575;SDS011;61859;49.204;8.140;2023-07-30T12:06:20;2.42;;;1.08;;
73575;SDS011;61859;49.204;8.140;2023-07-30T12:08:48;1.45;;;1.00;;
73575;SDS011;61859;49.204;8.140;2023-07-30T12:11:14;2.92;;;1.02;;
73575;SDS011;61859;49.204;8.140;2023-07-30T12:13:44;1.27;;;1.02;;
73575;SDS011;61859;49.204;8.140;2023-07-30T12:16:10;1.55;;;0.88;;
73575;SDS011;61859;49.204;8.140;2023-07-30T12:18:37;4.03;;;0.80;;
73575;SDS011;61859;49.204;8.140;2023-07-30T12:21:03;3.28;;;1.05;;
73575;SDS011;61859;49.204;8.140;2023-07-30T12:23:31;2.15;;;1.10;;
73575;SDS011;61859;49.204;8.140;2023-07-30T12:25:57;0.70;;;0.70;;
73575;SDS011;61859;49.204;8.140;2023-07-30T12:28:23;2.15;;;0.93;;
73575;SDS011;61859;49.204;8.140;2023-07-30T12:30:48;5.00;;;0.90;;
73575;SDS011;61859;49.204;8.140;2023-07-30T12:33:14;3.75;;;1.05;;
73575;SDS011;61859;49.204;8.140;2023-07-30T12:35:39;2.70;;;0.88;;
73575;SDS011;61859;49.204;8.140;2023-07-30T12:38:05;1.48;;;0.85;;
73575;SDS011;61859;49.204;8.140;2023-07-30T12:40:30;3.90;;;1.27;;
73575;SDS011;61859;49.204;8.140;2023-07-30T12:43:00;2.75;;;1.10;;
73575;SDS011;61859;49.204;8.140;2023-07-30T12:45:26;0.85;;;0.80;;
73575;SDS011;61859;49.204;8.140;2023-07-30T12:47:52;1.08;;;0.98;;
73575;SDS011;61859;49.204;8.140;2023-07-30T12:50:18;2.30;;;0.95;;
73575;SDS011;61859;49.204;8.140;2023-07-30T12:52:43;2.33;;;0.80;;
73575;SDS011;61859;49.204;8.140;2023-07-30T12:55:09;2.95;;;1.50;;
73575;SDS011;61859;49.204;8.140;2023-07-30T12:57:34;1.75;;;0.75;;
73575;SDS011;61859;49.204;8.140;2023-07-30T13:00:00;1.95;;;0.90;;
73575;SDS011;61859;49.204;8.140;2023-07-30T13:02:26;3.72;;;1.10;;
73575;SDS011;61859;49.204;8.140;2023-07-30T13:04:52;1.65;;;0.98;;
73575;SDS011;61859;49.204;8.140;2023-07-30T13:07:17;1.27;;;0.60;;
73575;SDS011;61859;49.204;8.140;2023-07-30T13:09:45;1.75;;;0.70;;
73575;SDS011;61859;49.204;8.140;2023-07-30T13:12:11;1.45;;;0.73;;
73575;SDS011;61859;49.204;8.140;2023-07-30T13:14:37;2.08;;;1.20;;
73575;SDS011;61859;49.204;8.140;2023-07-30T13:17:03;2.65;;;0.98;;
73575;SDS011;61859;49.204;8.140;2023-07-30T13:19:28;0.82;;;0.80;;
73575;SDS011;61859;49.204;8.140;2023-07-30T13:21:55;0.98;;;0.80;;
73575;SDS011;61859;49.204;8.140;2023-07-30T13:24:21;2.60;;;1.00;;
73575;SDS011;61859;49.204;8.140;2023-07-30T13:26:46;1.70;;;0.85;;
73575;SDS011;61859;49.204;8.140;2023-07-30T13:29:12;2.90;;;1.00;;
73575;SDS011;61859;49.204;8.140;2023-07-30T13:31:37;3.15;;;1.15;;
73575;SDS011;61859;49.204;8.140;2023-07-30T13:34:03;1.17;;;0.75;;
73575;SDS011;61859;49.204;8.140;2023-07-30T13:36:28;1.17;;;0.82;;
73575;SDS011;61859;49.204;8.140;2023-07-30T13:38:54;1.58;;;0.85;;
73575;SDS011;61859;49.204;8.140;2023-07-30T13:41:20;1.35;;;0.65;;
73575;SDS011;61859;49.204;8.140;2023-07-30T13:43:45;3.75;;;1.00;;
73575;SDS011;61859;49.204;8.140;2023-07-30T13:46:11;1.60;;;0.90;;
73575;SDS011;61859;49.204;8.140;2023-07-30T13:48:36;1.92;;;0.90;;
73575;SDS011;61859;49.204;8.140;2023-07-30T13:51:02;1.63;;;0.70;;
73575;SDS011;61859;49.204;8.140;2023-07-30T13:53:28;1.02;;;0.50;;
73575;SDS011;61859;49.204;8.140;2023-07-30T13:55:53;1.90;;;1.00;;
73575;SDS011;61859;49.204;8.140;2023-07-30T13:58:19;1.75;;;0.90;;
73575;SDS011;61859;49.204;8.140;2023-07-30T14:00:44;2.03;;;1.00;;
73575;SDS011;61859;49.204;8.140;2023-07-30T14:03:10;2.13;;;0.77;;
73575;SDS011;61859;49.204;8.140;2023-07-30T14:05:36;2.28;;;0.80;;
73575;SDS011;61859;49.204;8.140;2023-07-30T14:08:03;3.70;;;0.88;;
73575;SDS011;61859;49.204;8.140;2023-07-30T14:10:28;3.97;;;1.00;;
73575;SDS011;61859;49.204;8.140;2023-07-30T14:12:54;3.95;;;1.00;;
73575;SDS011;61859;49.204;8.140;2023-07-30T14:15:19;0.60;;;0.52;;
73575;SDS011;61859;49.204;8.140;2023-07-30T14:17:45;2.67;;;1.13;;
73575;SDS011;61859;49.204;8.140;2023-07-30T14:20:11;4.13;;;0.93;;
73575;SDS011;61859;49.204;8.140;2023-07-30T14:22:36;1.67;;;0.70;;
73575;SDS011;61859;49.204;8.140;2023-07-30T14:25:02;0.65;;;0.60;;
73575;SDS011;61859;49.204;8.140;2023-07-30T14:27:28;1.40;;;0.68;;
73575;SDS011;61859;49.204;8.140;2023-07-30T14:29:53;3.88;;;0.98;;
73575;SDS011;61859;49.204;8.140;2023-07-30T14:32:19;2.67;;;0.68;;
73575;SDS011;61859;49.204;8.140;2023-07-30T14:34:45;1.10;;;0.63;;
73575;SDS011;61859;49.204;8.140;2023-07-30T14:37:11;0.70;;;0.60;;
73575;SDS011;61859;49.204;8.140;2023-07-30T14:39:36;1.63;;;0.98;;
73575;SDS011;61859;49.204;8.140;2023-07-30T14:42:02;2.75;;;0.90;;
73575;SDS011;61859;49.204;8.140;2023-07-30T14:44:28;1.95;;;0.52;;
73575;SDS011;61859;49.204;8.140;2023-07-30T14:46:53;1.00;;;0.75;;
73575;SDS011;61859;49.204;8.140;2023-07-30T14:49:19;1.92;;;0.80;;
73575;SDS011;61859;49.204;8.140;2023-07-30T14:51:45;1.58;;;0.70;;